Time;durP1;ratioP1;P1;durP2;ratioP2;P2;SDS_P1;SDS_P2;PMS_P1;PMS_P2;Temp;Humidity;BMP_temperature;BMP_pressure;BME280_temperature;BME280_humidity;BME280_pressure;Samples;Min_cycle;Max_cycle;Signal;HPM_P1;HPM_P2
2023/03/10 00:00:26;;;;;;;19.52;12.18;;;;;;;;;;4970249;28;20046;-80
2023/03/10 00:02:52;;;;;;;19.75;12.30;;;;;;;;;;4988502;28;20030;-82
2023/03/10 00:05:20;;;;;;;20.55;12.38;;;;;;;;;;4991759;28;20041;-78
2023/03/10 00:07:49;;;;;;;20.60;12.00;;;;;;;;;;4986756;28;20496;-82
2023/03/10 00:10:15;;;;;;;18.65;11.93;;;;;;;;;;4987273;28;20030;-83
2023/03/10 00:12:41;;;;;;;18.05;11.75;;;;;;;;;;4988382;28;20041;-82
2023/03/10 00:15:07;;;;;;;18.25;11.52;;;;;;;;;;4973176;28;20120;-81
2023/03/10 00:17:34;;;;;;;18.52;11.57;;;;;;;;;;4984306;28;20367;-81
2023/03/10 00:20:00;;;;;;;16.90;11.52;;;;;;;;;;4987846;28;20161;-80
2023/03/10 00:22:26;;;;;;;18.52;12.15;;;;;;;;;;4974757;28;20048;-83
2023/03/10 00:24:52;;;;;;;18.92;12.27;;;;;;;;;;4993041;28;20133;-82
2023/03/10 00:27:17;;;;;;;15.18;9.90;;;;;;;;;;4990514;28;20047;-81
2023/03/10 00:29:44;;;;;;;17.10;11.95;;;;;;;;;;4991572;28;20038;-82
2023/03/10 00:32:09;;;;;;;17.35;11.45;;;;;;;;;;4989969;28;20105;-81
2023/03/10 00:34:35;;;;;;;18.40;11.38;;;;;;;;;;4961200;28;20475;-82
2023/03/10 00:37:01;;;;;;;15.77;9.50;;;;;;;;;;4987850;28;20042;-81
2023/03/10 00:39:27;;;;;;;17.17;11.90;;;;;;;;;;4982380;28;20387;-82
2023/03/10 00:41:53;;;;;;;17.27;10.68;;;;;;;;;;4995276;28;20038;-80
2023/03/10 00:44:20;;;;;;;15.95;10.15;;;;;;;;;;4994724;28;20045;-81
2023/03/10 00:46:46;;;;;;;13.95;9.70;;;;;;;;;;4981790;28;20134;-81
2023/03/10 00:49:15;;;;;;;14.63;10.07;;;;;;;;;;4973325;28;20066;-81
2023/03/10 00:51:41;;;;;;;15.68;10.10;;;;;;;;;;4989106;28;20026;-81
2023/03/10 00:54:07;;;;;;;16.88;10.65;;;;;;;;;;4985078;28;20105;-80
2023/03/10 00:56:33;;;;;;;17.00;10.27;;;;;;;;;;4995966;28;20501;-81
2023/03/10 00:58:59;;;;;;;15.57;10.10;;;;;;;;;;4986419;28;20050;-80
2023/03/10 01:01:36;;;;;;;15.80;10.93;;;;;;;;;;4991272;28;20034;-79
2023/03/10 01:04:06;;;;;;;14.10;10.02;;;;;;;;;;4993725;28;20529;-82
2023/03/10 01:06:32;;;;;;;15.38;9.32;;;;;;;;;;4994203;28;20042;-80
2023/03/10 01:08:58;;;;;;;16.08;10.73;;;;;;;;;;4988217;28;20023;-80
2023/03/10 01:11:25;;;;;;;17.92;11.55;;;;;;;;;;4993691;28;20042;-80
2023/03/10 01:13:52;;;;;;;16.80;10.27;;;;;;;;;;4988382;28;20060;-79
2023/03/10 01:16:18;;;;;;;16.60;10.32;;;;;;;;;;4971032;28;20037;-81
2023/03/10 01:18:44;;;;;;;19.00;11.60;;;;;;;;;;4989715;28;20168;-80
2023/03/10 01:21:18;;;;;;;16.33;11.52;;;;;;;;;;4990215;28;20040;-81
2023/03/10 01:23:44;;;;;;;20.42;12.73;;;;;;;;;;4988553;28;20541;-81
2023/03/10 01:26:10;;;;;;;19.65;12.82;;;;;;;;;;4972374;28;20082;-81
2023/03/10 01:28:36;;;;;;;18.50;12.80;;;;;;;;;;4990379;28;20113;-79
2023/03/10 01:31:04;;;;;;;20.35;13.15;;;;;;;;;;4978870;28;20082;-83
2023/03/10 01:33:30;;;;;;;21.13;14.45;;;;;;;;;;4989540;28;20530;-80
2023/03/10 01:35:56;;;;;;;22.00;14.32;;;;;;;;;;4976386;28;20050;-81
2023/03/10 01:38:22;;;;;;;20.40;13.73;;;;;;;;;;4991688;28;20035;-81
2023/03/10 01:40:49;;;;;;;20.77;13.30;;;;;;;;;;4986421;28;20038;-82
2023/03/10 01:43:27;;;;;;;19.60;13.27;;;;;;;;;;4990006;28;20022;-79
2023/03/10 01:45:53;;;;;;;20.73;13.57;;;;;;;;;;4989171;28;20025;-81
2023/03/10 01:48:21;;;;;;;21.52;15.00;;;;;;;;;;4989518;28;20022;-80
2023/03/10 01:50:50;;;;;;;21.98;14.80;;;;;;;;;;4988121;28;20034;-81
2023/03/10 01:53:18;;;;;;;20.38;14.10;;;;;;;;;;4991233;28;20161;-81
2023/03/10 01:55:48;;;;;;;21.92;15.13;;;;;;;;;;4989237;28;20032;-82
2023/03/10 01:58:15;;;;;;;21.92;15.30;;;;;;;;;;4982859;28;20162;-80
2023/03/10 02:00:42;;;;;;;25.17;17.63;;;;;;;;;;4982876;28;20030;-79
2023/03/10 02:03:27;;;;;;;24.75;16.73;;;;;;;;;;4989729;28;20045;-82
2023/03/10 02:05:55;;;;;;;29.40;18.27;;;;;;;;;;4983792;28;20030;-82
2023/03/10 02:08:22;;;;;;;26.20;17.85;;;;;;;;;;4991254;28;20102;-82
2023/03/10 02:10:50;;;;;;;25.95;19.25;;;;;;;;;;4990773;28;20046;-80
2023/03/10 02:13:16;;;;;;;25.85;16.92;;;;;;;;;;4995965;28;20026;-80
2023/03/10 02:15:42;;;;;;;27.38;17.73;;;;;;;;;;4986345;28;20018;-78
2023/03/10 02:18:09;;;;;;;22.15;15.43;;;;;;;;;;4992309;28;20022;-81
2023/03/10 02:20:41;;;;;;;21.23;15.60;;;;;;;;;;4989490;28;20088;-79
2023/03/10 02:23:09;;;;;;;23.10;14.82;;;;;;;;;;4973492;28;20034;-81
2023/03/10 02:25:35;;;;;;;21.13;14.40;;;;;;;;;;4987348;28;20104;-79
2023/03/10 02:28:02;;;;;;;21.10;14.20;;;;;;;;;;4992438;28;20455;-79
2023/03/10 02:30:37;;;;;;;19.67;14.15;;;;;;;;;;4995854;28;20022;-77
2023/03/10 02:33:09;;;;;;;17.88;13.05;;;;;;;;;;4986102;28;20027;-80
2023/03/10 02:35:35;;;;;;;15.90;11.43;;;;;;;;;;4991877;28;20041;-75
2023/03/10 02:38:01;;;;;;;18.08;12.23;;;;;;;;;;4996172;28;20034;-77
2023/03/10 02:40:32;;;;;;;15.25;11.60;;;;;;;;;;4994616;28;20034;-76
2023/03/10 02:43:03;;;;;;;16.27;11.38;;;;;;;;;;4993355;28;20165;-77
2023/03/10 02:45:32;;;;;;;15.55;10.82;;;;;;;;;;4990929;28;20062;-77
2023/03/10 02:47:58;;;;;;;18.55;12.45;;;;;;;;;;4984910;28;20065;-77
2023/03/10 02:50:26;;;;;;;14.73;10.27;;;;;;;;;;4980023;28;20035;-78
2023/03/10 02:53:01;;;;;;;15.18;9.00;;;;;;;;;;4991625;28;20039;-77
2023/03/10 02:55:27;;;;;;;16.67;10.70;;;;;;;;;;4990150;28;20033;-77
2023/03/10 02:57:53;;;;;;;15.35;10.55;;;;;;;;;;4988200;28;20058;-78
2023/03/10 03:00:20;;;;;;;18.35;11.13;;;;;;;;;;4990072;28;20034;-78
2023/03/10 03:02:46;;;;;;;15.48;10.57;;;;;;;;;;4978648;28;22527;-78
2023/03/10 03:05:12;;;;;;;16.85;10.98;;;;;;;;;;4993042;28;20026;-80
2023/03/10 03:07:38;;;;;;;16.65;11.00;;;;;;;;;;4974193;28;20030;-79
2023/03/10 03:10:04;;;;;;;18.05;10.55;;;;;;;;;;4990396;28;20026;-80
2023/03/10 03:12:30;;;;;;;17.00;11.18;;;;;;;;;;4993978;28;20042;-79
2023/03/10 03:14:56;;;;;;;17.58;11.77;;;;;;;;;;4974159;28;20391;-78
2023/03/10 03:17:22;;;;;;;16.88;11.10;;;;;;;;;;4986958;28;20038;-79
2023/03/10 03:19:48;;;;;;;22.48;12.40;;;;;;;;;;4996841;28;20030;-78
2023/03/10 03:22:14;;;;;;;18.17;11.98;;;;;;;;;;4986744;28;20126;-78
2023/03/10 03:24:40;;;;;;;18.67;12.77;;;;;;;;;;4987368;28;20042;-79
2023/03/10 03:27:06;;;;;;;18.38;11.75;;;;;;;;;;4986739;28;20044;-79
2023/03/10 03:29:32;;;;;;;18.88;12.80;;;;;;;;;;4991597;28;20045;-78
2023/03/10 03:31:58;;;;;;;17.95;12.43;;;;;;;;;;4969985;28;20034;-77
2023/03/10 03:34:24;;;;;;;19.40;12.77;;;;;;;;;;4988651;28;20076;-78
2023/03/10 03:36:51;;;;;;;19.50;12.98;;;;;;;;;;4991145;28;20270;-79
2023/03/10 03:39:17;;;;;;;20.65;13.20;;;;;;;;;;4991544;28;20041;-78
2023/03/10 03:41:43;;;;;;;18.42;12.05;;;;;;;;;;4952522;28;20034;-78
2023/03/10 03:44:09;;;;;;;18.60;12.13;;;;;;;;;;4986454;28;20043;-77
2023/03/10 03:46:35;;;;;;;23.17;12.85;;;;;;;;;;4983725;28;20038;-78
2023/03/10 03:49:01;;;;;;;18.83;12.27;;;;;;;;;;4974978;28;20034;-78
2023/03/10 03:51:27;;;;;;;18.27;12.15;;;;;;;;;;4988558;28;20045;-78
2023/03/10 03:53:53;;;;;;;20.60;12.57;;;;;;;;;;4990831;28;20042;-78
2023/03/10 03:56:19;;;;;;;18.50;12.02;;;;;;;;;;4991299;28;20264;-78
2023/03/10 03:58:45;;;;;;;19.98;12.63;;;;;;;;;;4987184;28;20050;-76
2023/03/10 04:01:11;;;;;;;20.52;12.38;;;;;;;;;;4963086;28;20364;-78
2023/03/10 04:03:38;;;;;;;20.25;12.32;;;;;;;;;;4990986;28;20077;-78
2023/03/10 04:06:06;;;;;;;21.25;12.75;;;;;;;;;;4987381;28;20038;-80
2023/03/10 04:08:32;;;;;;;19.75;12.02;;;;;;;;;;4992551;28;20034;-80
2023/03/10 04:10:58;;;;;;;21.90;13.02;;;;;;;;;;4972974;28;20045;-80
2023/03/10 04:13:24;;;;;;;21.08;13.18;;;;;;;;;;4986518;28;20032;-78
2023/03/10 04:15:57;;;;;;;20.15;12.73;;;;;;;;;;4984967;28;20046;-78
2023/03/10 04:18:23;;;;;;;20.95;13.32;;;;;;;;;;4987549;28;20376;-79
2023/03/10 04:20:49;;;;;;;19.30;12.88;;;;;;;;;;4973836;28;20062;-79
2023/03/10 04:23:15;;;;;;;21.50;14.63;;;;;;;;;;4989525;28;20385;-78
2023/03/10 04:25:42;;;;;;;22.70;14.20;;;;;;;;;;4991139;28;20064;-78
2023/03/10 04:28:08;;;;;;;21.25;14.07;;;;;;;;;;4985264;28;20374;-79
2023/03/10 04:30:34;;;;;;;25.30;14.77;;;;;;;;;;4990516;28;20539;-77
2023/03/10 04:33:00;;;;;;;26.02;16.05;;;;;;;;;;4986020;28;20654;-77
2023/03/10 04:35:27;;;;;;;23.85;15.38;;;;;;;;;;4990432;28;20022;-77
2023/03/10 04:37:53;;;;;;;23.05;14.88;;;;;;;;;;4973294;28;20145;-77
2023/03/10 04:40:19;;;;;;;25.65;15.38;;;;;;;;;;4990333;28;20092;-78
2023/03/10 04:42:45;;;;;;;24.40;15.48;;;;;;;;;;4987366;28;20095;-77
2023/03/10 04:45:12;;;;;;;24.25;16.88;;;;;;;;;;4972117;28;20026;-79
2023/03/10 04:47:38;;;;;;;25.20;15.90;;;;;;;;;;4985559;28;20026;-77
2023/03/10 04:50:05;;;;;;;26.80;16.75;;;;;;;;;;4971174;28;20045;-77
2023/03/10 04:52:31;;;;;;;26.25;16.13;;;;;;;;;;4983462;28;20038;-77
2023/03/10 04:54:57;;;;;;;25.88;16.27;;;;;;;;;;4986286;28;20041;-76
2023/03/10 04:57:23;;;;;;;25.20;16.58;;;;;;;;;;4971550;28;20033;-76
2023/03/10 04:59:49;;;;;;;27.88;17.80;;;;;;;;;;4985935;28;20567;-81
2023/03/10 05:02:15;;;;;;;27.42;17.42;;;;;;;;;;4984197;28;20038;-73
2023/03/10 05:04:41;;;;;;;26.25;16.08;;;;;;;;;;4983732;28;20041;-72
2023/03/10 05:07:07;;;;;;;28.35;17.15;;;;;;;;;;4991483;28;20471;-74
2023/03/10 05:09:36;;;;;;;28.73;17.15;;;;;;;;;;4982787;28;20046;-75
2023/03/10 05:12:04;;;;;;;25.10;16.15;;;;;;;;;;4979570;28;20487;-78
2023/03/10 05:14:30;;;;;;;29.85;16.38;;;;;;;;;;4975512;28;20037;-76
2023/03/10 05:16:56;;;;;;;30.40;17.25;;;;;;;;;;4973061;28;20042;-72
2023/03/10 05:19:22;;;;;;;29.38;17.75;;;;;;;;;;4975546;28;20081;-74
2023/03/10 05:21:48;;;;;;;35.72;17.83;;;;;;;;;;4980681;28;20090;-74
2023/03/10 05:24:15;;;;;;;33.38;17.42;;;;;;;;;;4979420;28;20030;-77
2023/03/10 05:26:41;;;;;;;28.77;18.13;;;;;;;;;;4985071;28;20030;-76
2023/03/10 05:29:07;;;;;;;29.10;15.80;;;;;;;;;;4985752;28;20034;-80
2023/03/10 05:31:33;;;;;;;30.15;17.80;;;;;;;;;;4976530;28;20308;-80
2023/03/10 05:33:59;;;;;;;28.05;16.83;;;;;;;;;;4981070;28;20406;-78
2023/03/10 05:36:26;;;;;;;28.65;17.17;;;;;;;;;;4988785;28;20031;-77
2023/03/10 05:38:52;;;;;;;29.67;17.83;;;;;;;;;;4985027;28;20471;-75
2023/03/10 05:41:18;;;;;;;47.00;19.35;;;;;;;;;;4988214;28;20026;-77
2023/03/10 05:43:44;;;;;;;31.40;19.08;;;;;;;;;;4983093;28;20411;-73
2023/03/10 05:46:10;;;;;;;33.30;17.80;;;;;;;;;;4987387;28;20472;-76
2023/03/10 05:48:37;;;;;;;33.75;18.98;;;;;;;;;;4992150;28;20030;-76
2023/03/10 05:51:08;;;;;;;31.48;18.63;;;;;;;;;;4992841;28;20085;-78
2023/03/10 05:53:34;;;;;;;34.55;19.52;;;;;;;;;;4973287;28;20031;-76
2023/03/10 05:56:04;;;;;;;31.38;19.00;;;;;;;;;;4973946;28;20076;-75
2023/03/10 05:58:30;;;;;;;35.25;20.65;;;;;;;;;;4992002;28;20078;-76
2023/03/10 06:00:55;;;;;;;42.70;24.08;;;;;;;;;;4984209;28;20073;-78
2023/03/10 06:03:22;;;;;;;39.17;22.55;;;;;;;;;;4980277;28;20402;-76
2023/03/10 06:05:49;;;;;;;36.75;21.30;;;;;;;;;;4986064;28;20038;-78
2023/03/10 06:08:15;;;;;;;40.95;22.77;;;;;;;;;;4973886;28;20317;-76
2023/03/10 06:10:41;;;;;;;41.40;22.80;;;;;;;;;;4983756;28;20035;-74
2023/03/10 06:13:07;;;;;;;43.92;24.50;;;;;;;;;;4988927;28;21159;-74
2023/03/10 06:15:33;;;;;;;45.85;24.30;;;;;;;;;;4975509;28;20406;-74
2023/03/10 06:17:59;;;;;;;42.42;24.15;;;;;;;;;;4987627;28;20050;-73
2023/03/10 06:20:25;;;;;;;49.22;26.88;;;;;;;;;;4989059;28;20073;-74
2023/03/10 06:22:52;;;;;;;44.42;24.63;;;;;;;;;;4972231;28;20559;-76
2023/03/10 06:25:18;;;;;;;48.70;26.13;;;;;;;;;;4987041;28;20121;-75
2023/03/10 06:27:44;;;;;;;50.10;26.55;;;;;;;;;;4969434;28;20564;-77
2023/03/10 06:30:10;;;;;;;47.58;25.48;;;;;;;;;;4981622;28;20049;-73
2023/03/10 06:32:36;;;;;;;52.28;27.35;;;;;;;;;;4984636;28;20121;-74
2023/03/10 06:35:02;;;;;;;47.58;27.27;;;;;;;;;;4984696;28;20039;-73
2023/03/10 06:37:28;;;;;;;47.05;24.48;;;;;;;;;;4989702;28;20537;-74
2023/03/10 06:39:55;;;;;;;45.85;24.95;;;;;;;;;;4990786;28;20081;-75
2023/03/10 06:42:21;;;;;;;45.28;25.38;;;;;;;;;;4993523;28;20042;-74
2023/03/10 06:44:47;;;;;;;43.60;24.95;;;;;;;;;;4984919;28;20089;-75
2023/03/10 06:47:13;;;;;;;40.35;24.02;;;;;;;;;;4970895;28;20030;-75
2023/03/10 06:49:39;;;;;;;41.97;22.08;;;;;;;;;;4985853;28;20034;-74
2023/03/10 06:52:05;;;;;;;39.00;23.75;;;;;;;;;;4988521;28;20041;-74
2023/03/10 06:54:32;;;;;;;37.70;21.65;;;;;;;;;;4986362;28;20045;-75
2023/03/10 06:57:00;;;;;;;65.43;33.63;;;;;;;;;;4988330;28;20116;-76
2023/03/10 06:59:26;;;;;;;33.55;20.55;;;;;;;;;;4977779;28;20097;-75
2023/03/10 07:01:52;;;;;;;31.23;19.50;;;;;;;;;;4981330;28;20034;-78
2023/03/10 07:04:18;;;;;;;34.95;19.52;;;;;;;;;;4983311;28;20120;-75
2023/03/10 07:06:44;;;;;;;30.58;17.60;;;;;;;;;;4989828;28;20066;-77
2023/03/10 07:09:10;;;;;;;31.33;18.58;;;;;;;;;;4990767;28;20049;-75
2023/03/10 07:11:36;;;;;;;28.55;17.75;;;;;;;;;;4993286;28;20062;-75
2023/03/10 07:14:03;;;;;;;29.60;18.35;;;;;;;;;;4970848;28;20034;-76
2023/03/10 07:16:29;;;;;;;26.85;16.67;;;;;;;;;;4983798;28;20038;-74
2023/03/10 07:18:55;;;;;;;29.08;16.08;;;;;;;;;;4971455;28;20038;-75
2023/03/10 07:21:23;;;;;;;26.65;15.55;;;;;;;;;;4985370;28;20121;-77
2023/03/10 07:23:49;;;;;;;22.65;14.68;;;;;;;;;;4977438;28;20034;-74
2023/03/10 07:26:17;;;;;;;32.08;16.45;;;;;;;;;;4987575;28;20435;-74
2023/03/10 07:28:43;;;;;;;25.58;16.35;;;;;;;;;;4973908;28;20030;-74
2023/03/10 07:31:10;;;;;;;22.45;14.15;;;;;;;;;;4987476;28;20042;-76
2023/03/10 07:33:37;;;;;;;27.58;16.52;;;;;;;;;;4978975;28;20371;-77
2023/03/10 07:36:08;;;;;;;22.65;14.82;;;;;;;;;;4967790;28;20038;-77
2023/03/10 07:38:34;;;;;;;23.05;14.13;;;;;;;;;;4966266;28;20126;-74
2023/03/10 07:41:01;;;;;;;24.42;15.63;;;;;;;;;;4970132;28;20576;-76
2023/03/10 07:43:27;;;;;;;28.85;15.45;;;;;;;;;;4987941;28;20486;-74
2023/03/10 07:45:53;;;;;;;24.05;14.52;;;;;;;;;;4986781;28;20157;-78
2023/03/10 07:48:19;;;;;;;20.30;13.90;;;;;;;;;;4988794;28;20122;-78
2023/03/10 07:50:45;;;;;;;23.05;13.73;;;;;;;;;;4988390;28;20109;-77
2023/03/10 07:53:11;;;;;;;24.00;14.23;;;;;;;;;;4971708;28;20048;-76
2023/03/10 07:55:37;;;;;;;22.17;14.52;;;;;;;;;;4989717;28;20107;-75
2023/03/10 07:58:03;;;;;;;22.50;14.35;;;;;;;;;;4968612;28;20145;-77
2023/03/10 08:00:29;;;;;;;22.75;14.05;;;;;;;;;;4966320;28;20123;-75
2023/03/10 08:02:55;;;;;;;22.30;14.88;;;;;;;;;;4956021;28;20053;-78
2023/03/10 08:05:21;;;;;;;20.75;12.98;;;;;;;;;;4981591;28;20042;-79
2023/03/10 08:07:47;;;;;;;21.50;14.63;;;;;;;;;;4972952;28;20026;-78
2023/03/10 08:10:13;;;;;;;22.30;14.77;;;;;;;;;;4981821;28;22911;-77
2023/03/10 08:12:40;;;;;;;23.58;15.63;;;;;;;;;;4973462;28;20038;-76
2023/03/10 08:15:06;;;;;;;24.25;16.27;;;;;;;;;;4980790;28;20027;-76
2023/03/10 08:17:32;;;;;;;27.13;16.50;;;;;;;;;;4956384;28;20053;-76
2023/03/10 08:19:59;;;;;;;23.95;15.70;;;;;;;;;;4986160;28;20118;-76
2023/03/10 08:22:25;;;;;;;27.80;17.77;;;;;;;;;;4987227;28;20061;-76
2023/03/10 08:24:51;;;;;;;25.92;16.17;;;;;;;;;;4971294;28;20034;-76
2023/03/10 08:27:18;;;;;;;29.92;19.02;;;;;;;;;;4987234;28;20034;-76
2023/03/10 08:29:44;;;;;;;30.67;16.90;;;;;;;;;;4978551;28;20034;-76
2023/03/10 08:32:10;;;;;;;26.90;16.50;;;;;;;;;;4950083;28;20127;-76
2023/03/10 08:34:36;;;;;;;23.38;15.10;;;;;;;;;;4986390;28;20122;-75
2023/03/10 08:37:02;;;;;;;25.23;17.17;;;;;;;;;;4989420;28;20038;-75
2023/03/10 08:39:28;;;;;;;25.52;15.77;;;;;;;;;;4988895;28;20032;-76
2023/03/10 08:41:54;;;;;;;25.13;15.38;;;;;;;;;;4984281;28;20037;-76
2023/03/10 08:44:21;;;;;;;24.33;16.88;;;;;;;;;;4985734;28;20053;-73
2023/03/10 08:46:48;;;;;;;25.83;16.17;;;;;;;;;;4978971;28;20022;-75
2023/03/10 08:49:15;;;;;;;24.33;17.50;;;;;;;;;;4966665;28;20038;-73
2023/03/10 08:51:41;;;;;;;24.58;16.02;;;;;;;;;;4981939;28;20121;-72
2023/03/10 08:54:08;;;;;;;28.60;16.42;;;;;;;;;;4982762;28;20022;-73
2023/03/10 08:56:34;;;;;;;26.52;16.90;;;;;;;;;;4981320;28;20438;-78
2023/03/10 08:59:00;;;;;;;24.45;16.63;;;;;;;;;;4970831;28;20081;-75
2023/03/10 09:01:28;;;;;;;25.58;16.33;;;;;;;;;;4979479;28;20038;-75
2023/03/10 09:03:54;;;;;;;25.42;16.40;;;;;;;;;;4982675;28;20038;-72
2023/03/10 09:06:20;;;;;;;24.20;15.00;;;;;;;;;;4984737;28;20050;-76
2023/03/10 09:08:49;;;;;;;24.17;15.98;;;;;;;;;;4989136;28;20030;-76
2023/03/10 09:11:16;;;;;;;26.58;17.55;;;;;;;;;;4990097;28;20370;-75
2023/03/10 09:13:42;;;;;;;22.90;15.07;;;;;;;;;;4977256;28;20035;-75
2023/03/10 09:16:08;;;;;;;26.52;17.05;;;;;;;;;;4982438;28;20106;-76
2023/03/10 09:18:35;;;;;;;25.90;17.25;;;;;;;;;;4980918;28;20131;-77
2023/03/10 09:21:01;;;;;;;26.40;16.80;;;;;;;;;;4989678;28;20109;-76
2023/03/10 09:23:27;;;;;;;26.55;16.27;;;;;;;;;;4983164;28;20018;-76
2023/03/10 09:25:53;;;;;;;26.10;16.77;;;;;;;;;;4988121;28;20026;-76
2023/03/10 09:28:19;;;;;;;26.15;16.75;;;;;;;;;;4988208;28;20026;-76
2023/03/10 09:30:46;;;;;;;28.60;17.85;;;;;;;;;;4986313;28;20349;-76
2023/03/10 09:33:17;;;;;;;26.23;16.05;;;;;;;;;;4984036;28;20122;-76
2023/03/10 09:35:43;;;;;;;26.23;16.23;;;;;;;;;;4989397;28;20026;-76
2023/03/10 09:38:09;;;;;;;25.55;16.63;;;;;;;;;;4980746;28;20023;-77
2023/03/10 09:40:36;;;;;;;27.88;16.17;;;;;;;;;;4984499;28;20026;-76
2023/03/10 09:43:04;;;;;;;29.38;15.82;;;;;;;;;;4987634;28;20035;-76
2023/03/10 09:45:33;;;;;;;26.05;15.70;;;;;;;;;;4985221;28;20019;-76
2023/03/10 09:48:04;;;;;;;24.58;16.90;;;;;;;;;;4990723;28;20038;-76
2023/03/10 09:50:33;;;;;;;27.45;17.25;;;;;;;;;;4986375;28;20042;-76
2023/03/10 09:53:06;;;;;;;25.10;16.55;;;;;;;;;;4970398;28;20099;-76
2023/03/10 09:55:39;;;;;;;24.58;16.52;;;;;;;;;;4986622;28;20023;-77
2023/03/10 09:58:08;;;;;;;30.27;18.60;;;;;;;;;;4987763;28;20034;-76
2023/03/10 10:00:39;;;;;;;25.35;16.75;;;;;;;;;;4985856;28;20460;-76
2023/03/10 10:03:18;;;;;;;28.98;17.25;;;;;;;;;;4967771;28;20100;-77
2023/03/10 10:05:45;;;;;;;24.25;16.40;;;;;;;;;;4989612;28;20376;-76
2023/03/10 10:08:17;;;;;;;25.83;17.35;;;;;;;;;;4986700;28;20030;-77
2023/03/10 10:10:45;;;;;;;25.55;17.25;;;;;;;;;;4971780;28;20177;-76
2023/03/10 10:13:16;;;;;;;27.15;16.55;;;;;;;;;;4982277;28;20033;-77
2023/03/10 10:15:46;;;;;;;21.77;15.35;;;;;;;;;;4985792;28;20057;-76
2023/03/10 10:18:14;;;;;;;25.08;16.40;;;;;;;;;;4981449;28;20515;-76
2023/03/10 10:20:52;;;;;;;25.25;15.57;;;;;;;;;;4987817;28;20049;-76
2023/03/10 10:23:30;;;;;;;27.42;16.95;;;;;;;;;;4985055;28;20096;-76
2023/03/10 10:26:00;;;;;;;24.73;15.85;;;;;;;;;;4991158;28;20068;-76
2023/03/10 10:28:32;;;;;;;23.40;15.30;;;;;;;;;;4964695;28;20035;-76
2023/03/10 10:31:12;;;;;;;24.05;16.38;;;;;;;;;;4970767;28;20037;-76
2023/03/10 10:34:10;;;;;;;26.90;17.88;;;;;;;;;;4990839;28;20459;-76
2023/03/10 10:36:40;;;;;;;30.25;16.30;;;;;;;;;;4961108;28;20034;-76
2023/03/10 10:39:21;;;;;;;27.38;16.58;;;;;;;;;;4983565;28;20372;-80
2023/03/10 10:41:46;;;;;;;28.83;17.63;;;;;;;;;;4991095;28;20030;-76
2023/03/10 10:44:14;;;;;;;28.63;18.65;;;;;;;;;;4990142;28;20026;-76
2023/03/10 10:46:51;;;;;;;30.25;18.33;;;;;;;;;;4985252;28;20022;-76
2023/03/10 10:49:24;;;;;;;27.90;18.05;;;;;;;;;;4966523;28;20030;-77
2023/03/10 10:51:58;;;;;;;27.50;16.38;;;;;;;;;;4989952;28;20051;-75
2023/03/10 10:54:27;;;;;;;28.95;18.67;;;;;;;;;;4993853;28;20030;-77
2023/03/10 10:57:00;;;;;;;31.20;18.80;;;;;;;;;;4990742;28;20041;-76
2023/03/10 10:59:31;;;;;;;28.00;17.88;;;;;;;;;;4991430;28;20069;-77
2023/03/10 11:02:02;;;;;;;29.02;18.27;;;;;;;;;;4980636;28;20030;-78
2023/03/10 11:04:29;;;;;;;37.50;19.35;;;;;;;;;;4992363;28;20038;-80
2023/03/10 11:07:12;;;;;;;28.30;18.90;;;;;;;;;;4994674;28;20104;-78
2023/03/10 11:09:38;;;;;;;31.13;19.92;;;;;;;;;;4990666;28;20517;-77
2023/03/10 11:12:10;;;;;;;33.28;19.52;;;;;;;;;;4986413;28;20038;-76
2023/03/10 11:14:43;;;;;;;26.73;18.58;;;;;;;;;;4986957;28;20026;-77
2023/03/10 11:17:13;;;;;;;25.38;17.65;;;;;;;;;;4992781;28;20081;-76
2023/03/10 11:19:38;;;;;;;33.75;18.67;;;;;;;;;;4986733;28;20517;-78
2023/03/10 11:22:12;;;;;;;29.38;19.48;;;;;;;;;;4973575;28;20023;-78
2023/03/10 11:24:53;;;;;;;29.67;18.13;;;;;;;;;;4974559;28;20140;-76
2023/03/10 11:27:27;;;;;;;28.15;18.15;;;;;;;;;;4991019;28;20079;-75
2023/03/10 11:30:03;;;;;;;27.77;18.77;;;;;;;;;;4988108;28;20034;-75
2023/03/10 11:32:48;;;;;;;31.63;18.85;;;;;;;;;;4990812;28;20379;-77
2023/03/10 11:35:44;;;;;;;28.08;18.33;;;;;;;;;;4981219;28;20073;-77
2023/03/10 11:38:29;;;;;;;32.05;20.50;;;;;;;;;;4966394;28;20050;-77
2023/03/10 11:40:57;;;;;;;38.10;22.45;;;;;;;;;;4979083;28;20108;-78
2023/03/10 11:43:29;;;;;;;30.75;20.08;;;;;;;;;;4965288;28;20058;-76
2023/03/10 11:45:57;;;;;;;29.10;19.25;;;;;;;;;;4980419;28;20106;-78
2023/03/10 11:48:29;;;;;;;30.33;20.50;;;;;;;;;;4984374;28;20026;-77
2023/03/10 11:50:58;;;;;;;29.65;19.13;;;;;;;;;;4993123;28;20033;-77
2023/03/10 11:53:24;;;;;;;30.05;19.25;;;;;;;;;;5001477;28;20105;-78
2023/03/10 11:55:50;;;;;;;31.60;19.60;;;;;;;;;;4993389;28;20462;-78
2023/03/10 11:58:37;;;;;;;30.58;19.60;;;;;;;;;;4984163;28;20141;-79
2023/03/10 12:01:04;;;;;;;30.90;20.15;;;;;;;;;;4962907;28;20041;-77
2023/03/10 12:03:30;;;;;;;31.20;20.60;;;;;;;;;;4983740;28;20110;-75
2023/03/10 12:05:58;;;;;;;30.58;21.20;;;;;;;;;;4992135;28;20130;-77
2023/03/10 12:08:24;;;;;;;30.60;19.88;;;;;;;;;;4974662;28;20030;-76
2023/03/10 12:10:52;;;;;;;29.20;19.90;;;;;;;;;;4991206;28;20693;-78
2023/03/10 12:13:23;;;;;;;31.30;21.52;;;;;;;;;;4991996;28;20056;-75
2023/03/10 12:15:50;;;;;;;30.58;20.40;;;;;;;;;;4988712;28;20038;-78
2023/03/10 12:18:17;;;;;;;30.92;19.58;;;;;;;;;;4992230;28;20097;-76
2023/03/10 12:20:43;;;;;;;30.83;19.67;;;;;;;;;;4976689;28;20092;-77
2023/03/10 12:23:09;;;;;;;27.80;18.95;;;;;;;;;;4959516;28;20454;-77
2023/03/10 12:25:37;;;;;;;30.98;19.73;;;;;;;;;;4974493;28;20445;-76
2023/03/10 12:28:23;;;;;;;26.92;18.15;;;;;;;;;;4991708;28;20027;-77
2023/03/10 12:30:49;;;;;;;26.48;18.02;;;;;;;;;;4982620;28;20035;-76
2023/03/10 12:33:37;;;;;;;29.08;19.20;;;;;;;;;;4959956;28;20439;-76
2023/03/10 12:36:04;;;;;;;27.88;18.98;;;;;;;;;;4992201;28;20030;-76
2023/03/10 12:38:29;;;;;;;30.38;20.13;;;;;;;;;;4991818;28;20041;-75
2023/03/10 12:40:56;;;;;;;28.52;18.77;;;;;;;;;;4981143;28;20030;-77
2023/03/10 12:43:52;;;;;;;26.42;18.00;;;2.50;99.90;;;;;;4973595;28;20065;-76
2023/03/10 12:46:20;;;;;;;26.30;18.42;;;;;;;;;;4974440;28;20034;-76
2023/03/10 12:48:49;;;;;;;28.05;19.10;;;;;;;;;;4986934;28;20041;-76
2023/03/10 12:51:19;;;;;;;31.38;19.52;;;;;;;;;;4991657;28;20121;-77
2023/03/10 12:54:04;;;;;;;37.20;22.08;;;;;;;;;;4990881;28;20026;-77
2023/03/10 12:56:39;;;;;;;42.40;22.33;;;;;;;;;;4972413;28;20035;-77
2023/03/10 12:59:10;;;;;;;43.65;25.63;;;;;;;;;;4984991;28;20046;-78
2023/03/10 13:01:39;;;;;;;40.78;23.23;;;;;;;;;;4987159;28;20624;-77
2023/03/10 13:04:06;;;;;;;41.97;24.30;;;;;;;;;;4985671;28;20034;-78
2023/03/10 13:06:34;;;;;;;49.08;24.50;;;;;;;;;;4992249;28;20045;-77
2023/03/10 13:09:13;;;;;;;36.83;20.92;;;;;;;;;;4993789;28;20052;-75
2023/03/10 13:11:44;;;;;;;36.28;21.23;;;;;;;;;;4991667;28;20431;-75
2023/03/10 13:14:14;;;;;;;29.50;18.75;;;;;;;;;;5003520;28;20084;-77
2023/03/10 13:16:41;;;;;;;36.05;20.02;;;;;;;;;;4996207;28;20038;-75
2023/03/10 13:19:07;;;;;;;31.33;19.38;;;;;;;;;;4988166;28;20038;-77
2023/03/10 13:21:37;;;;;;;29.25;19.00;;;;;;;;;;4987927;28;20065;-77
2023/03/10 13:24:19;;;;;;;30.77;17.65;;;;;;;;;;4991014;28;20026;-76
2023/03/10 13:26:45;;;;;;;30.60;17.50;;;;;;;;;;4989517;28;20038;-76
2023/03/10 13:29:16;;;;;;;29.23;18.25;;;;;;;;;;4990970;28;20099;-76
2023/03/10 13:31:50;;;;;;;30.00;18.00;;;;;;;;;;5001546;28;20045;-76
2023/03/10 13:34:19;;;;;;;27.40;16.42;;;;;;;;;;4994486;28;20034;-76
2023/03/10 13:36:45;;;;;;;28.60;17.58;;;;;;;;;;4990119;28;20030;-76
2023/03/10 13:39:21;;;;;;;27.17;17.02;;;;;;;;;;4973364;28;20046;-76
2023/03/10 13:41:49;;;;;;;26.75;17.65;;;;;;;;;;4977659;28;20133;-76
2023/03/10 13:44:22;;;;;;;27.58;16.25;;;;;;;;;;4979929;28;20457;-75
2023/03/10 13:46:52;;;;;;;27.42;14.35;;;;;;;;;;4977444;28;20038;-76
2023/03/10 13:49:20;;;;;;;24.08;14.70;;;;;;;;;;4980883;28;20080;-76
2023/03/10 13:51:57;;;;;;;26.40;15.13;;;;;;;;;;4989050;28;20080;-76
2023/03/10 13:54:31;;;;;;;30.33;16.30;;;;;;;;;;4972833;28;20039;-75
2023/03/10 13:56:58;;;;;;;28.33;15.10;;;;;;;;;;4986720;28;20648;-75
2023/03/10 13:59:27;;;;;;;26.65;14.30;;;;;;;;;;4990946;28;20045;-75
2023/03/10 14:01:56;;;;;;;27.33;15.10;;;;;;;;;;4957479;28;20038;-76
2023/03/10 14:04:38;;;;;;;24.05;13.25;;;;;;;;;;4980929;28;20035;-75
2023/03/10 14:07:04;;;;;;;;;;;;;;;;;;4994274;28;20060;-76
2023/03/10 14:09:30;;;;;;;22.70;13.82;;;;;;;;;;4985724;28;19910;-75
2023/03/10 14:11:56;;;;;;;24.55;14.45;;;;;;;;;;4984235;28;20035;-76
2023/03/10 14:14:33;;;;;;;25.10;14.52;;;;;;;;;;4996340;28;20041;-75
2023/03/10 14:17:00;;;;;;;27.30;14.25;;;;;;;;;;4976739;28;20501;-75
2023/03/10 14:19:55;;;;;;;21.00;12.18;;;;;;;;;;4994908;28;20486;-78
2023/03/10 14:22:42;;;;;;;21.65;13.15;;;;;;;;;;4985208;28;20058;-76